createdAt,value
2023-04-14T03:46:24.136Z,93.20
2023-04-14T03:48:52.589Z,93.30
2023-04-14T03:51:21.206Z,93.20
2023-04-14T03:53:49.129Z,93.20
2023-04-14T03:56:17.317Z,93.40
2023-04-14T03:58:50.508Z,93.50
2023-04-14T04:01:18.398Z,93.00
2023-04-14T04:03:46.490Z,93.00
2023-04-14T04:06:13.710Z,93.20
2023-04-14T04:08:41.285Z,93.00
2023-04-14T04:11:08.572Z,92.50
2023-04-14T04:13:36.627Z,92.40
2023-04-14T04:16:05.955Z,92.20
2023-04-14T04:18:35.302Z,92.10
2023-04-14T04:21:02.546Z,92.30
2023-04-14T04:23:32.198Z,92.30
2023-04-14T04:25:59.338Z,92.30
2023-04-14T04:28:26.922Z,92.40
2023-04-14T04:30:54.500Z,92.40
2023-04-14T04:33:22.654Z,92.80
2023-04-14T04:35:50.362Z,92.60
2023-04-14T04:38:17.415Z,92.90
2023-04-14T04:40:44.369Z,92.30
2023-04-14T04:43:12.406Z,92.30
2023-04-14T04:45:58.079Z,92.10
2023-04-14T04:48:25.220Z,92.20
2023-04-14T04:50:52.148Z,92.10
2023-04-14T04:53:19.184Z,92.00
2023-04-14T04:55:46.067Z,92.30
2023-04-14T04:58:12.959Z,92.70
2023-04-14T05:00:39.974Z,92.90
2023-04-14T05:03:07.170Z,92.90
2023-04-14T05:05:37.191Z,93.10
2023-04-14T05:08:04.295Z,93.10
2023-04-14T05:10:33.695Z,93.10
2023-04-14T05:13:00.599Z,93.20
2023-04-14T05:15:27.572Z,93.30
2023-04-14T05:17:54.699Z,93.40
2023-04-14T05:20:21.600Z,93.40
2023-04-14T05:22:48.524Z,93.40
2023-04-14T05:25:15.552Z,93.50
2023-04-14T05:27:42.488Z,93.50
2023-04-14T05:30:09.692Z,93.50
2023-04-14T05:32:36.776Z,93.60
2023-04-14T05:35:05.226Z,93.70
2023-04-14T05:37:33.069Z,93.60
2023-04-14T05:40:01.415Z,93.60
2023-04-14T05:42:28.297Z,93.60
2023-04-14T05:44:55.257Z,93.70
2023-04-14T05:47:22.204Z,94.00
2023-04-14T05:49:49.143Z,94.00
2023-04-14T05:52:16.292Z,94.10
2023-04-14T05:54:43.414Z,94.30
2023-04-14T05:57:10.565Z,94.20
2023-04-14T05:59:37.443Z,94.40
2023-04-14T06:02:07.206Z,94.40
2023-04-14T06:04:34.525Z,94.40
2023-04-14T06:07:03.024Z,94.50
2023-04-14T06:09:29.936Z,94.60
2023-04-14T06:11:57.377Z,94.50
2023-04-14T06:14:24.286Z,94.50
2023-04-14T06:16:51.460Z,94.70
2023-04-14T06:19:18.816Z,94.80
2023-04-14T06:21:46.951Z,94.70
2023-04-14T06:24:13.915Z,94.70
2023-04-14T06:26:40.822Z,94.80
2023-04-14T06:29:07.954Z,94.70
2023-04-14T06:31:35.223Z,94.70
2023-04-14T06:34:02.144Z,95.00
2023-04-14T06:36:29.097Z,95.00
2023-04-14T06:38:56.651Z,95.10
2023-04-14T06:41:23.689Z,95.20
2023-04-14T06:43:50.641Z,95.10
2023-04-14T06:46:17.904Z,95.20
2023-04-14T06:48:44.966Z,95.20
2023-04-14T06:51:12.329Z,95.40
2023-04-14T06:53:39.379Z,95.60
2023-04-14T06:56:06.736Z,95.70
2023-04-14T06:58:33.757Z,95.20
2023-04-14T07:01:01.882Z,95.40
2023-04-14T07:03:34.294Z,95.70
2023-04-14T07:06:14.510Z,95.90
2023-04-14T07:08:41.428Z,95.70
2023-04-14T07:11:09.528Z,95.50
2023-04-14T07:13:37.020Z,95.40
2023-04-14T07:16:04.447Z,95.50
2023-04-14T07:18:31.754Z,95.50
2023-04-14T07:21:01.644Z,95.50
2023-04-14T07:23:28.669Z,95.20
2023-04-14T07:25:57.139Z,95.40
2023-04-14T07:28:24.540Z,95.40
2023-04-14T07:30:51.661Z,95.40
2023-04-14T07:33:19.143Z,95.50
2023-04-14T07:36:00.625Z,95.60
2023-04-14T07:38:28.763Z,95.50
2023-04-14T07:40:55.784Z,95.50
2023-04-14T07:43:23.165Z,95.30
2023-04-14T07:45:50.910Z,95.30
2023-04-14T07:48:19.720Z,95.10
2023-04-14T07:50:48.341Z,95.30
2023-04-14T07:53:15.303Z,95.20
2023-04-14T07:55:42.192Z,95.30
2023-04-14T07:58:09.063Z,95.40
2023-04-14T08:00:36.074Z,95.40
2023-04-14T08:03:03.277Z,95.50
2023-04-14T08:05:30.356Z,95.40
2023-04-14T08:07:57.322Z,95.40
2023-04-14T08:10:24.354Z,95.20
2023-04-14T08:12:51.335Z,95.30
2023-04-14T08:15:18.757Z,95.60
2023-04-14T08:17:45.722Z,95.60
2023-04-14T08:20:12.739Z,95.50
2023-04-14T08:22:39.676Z,95.60
2023-04-14T08:25:06.804Z,95.60
2023-04-14T08:27:33.737Z,95.60
2023-04-14T08:30:00.698Z,95.60
2023-04-14T08:32:28.522Z,95.80
2023-04-14T08:35:39.714Z,95.90
2023-04-14T08:37:43.117Z,95.70
2023-04-14T08:40:10.398Z,95.60
2023-04-14T08:42:37.414Z,95.70
2023-04-14T08:45:04.624Z,95.70
2023-04-14T08:47:32.070Z,95.60
2023-04-14T08:50:03.085Z,95.50
2023-04-14T08:52:31.103Z,95.50
2023-04-14T08:55:00.137Z,95.50
2023-04-14T08:57:27.453Z,95.50
2023-04-14T09:00:04.330Z,95.50
2023-04-14T09:02:34.309Z,95.10
2023-04-14T09:05:01.667Z,94.70
2023-04-14T09:07:30.247Z,94.60
2023-04-14T09:09:57.625Z,94.60
2023-04-14T09:12:25.979Z,94.60
2023-04-14T09:14:53.932Z,94.30
2023-04-14T09:17:21.133Z,94.40
2023-04-14T09:20:36.241Z,94.70
2023-04-14T09:22:35.711Z,94.60
2023-04-14T09:25:03.141Z,94.40
2023-04-14T09:27:30.087Z,94.10
2023-04-14T09:29:58.352Z,93.90
2023-04-14T09:32:25.730Z,93.80
2023-04-14T09:34:55.550Z,93.80
2023-04-14T09:37:24.556Z,93.90
2023-04-14T09:39:52.110Z,93.20
2023-04-14T09:42:19.163Z,93.30
2023-04-14T09:44:56.088Z,93.20
2023-04-14T09:47:24.011Z,93.40
2023-04-14T09:49:55.957Z,93.50
2023-04-14T09:52:22.974Z,93.50
2023-04-14T09:54:54.924Z,92.70
2023-04-14T09:57:26.276Z,92.60
2023-04-14T10:00:02.574Z,93.00
2023-04-14T10:02:30.781Z,92.30
2023-04-14T10:05:06.991Z,91.90
2023-04-14T10:07:40.242Z,91.70
2023-04-14T10:10:07.670Z,91.50
2023-04-14T10:12:34.694Z,91.80
2023-04-14T10:15:01.703Z,91.30
2023-04-14T10:17:30.302Z,91.60
2023-04-14T10:19:59.179Z,90.90
2023-04-14T10:22:27.731Z,90.00
2023-04-14T10:24:54.981Z,90.00
2023-04-14T10:27:22.268Z,90.00
2023-04-14T10:29:49.238Z,91.20
2023-04-14T10:32:17.518Z,91.70
2023-04-14T10:35:03.714Z,91.30
2023-04-14T10:37:31.567Z,90.10
2023-04-14T10:39:59.422Z,90.10
2023-04-14T10:42:26.627Z,88.50
2023-04-14T10:45:05.648Z,89.30
2023-04-14T10:47:33.310Z,89.40
2023-04-14T10:50:09.650Z,88.70
2023-04-14T10:52:38.097Z,87.10
2023-04-14T10:55:08.155Z,90.40
2023-04-14T10:57:42.326Z,89.30
2023-04-14T11:00:12.339Z,89.30
2023-04-14T11:02:53.791Z,88.90
2023-04-14T11:05:20.846Z,88.00
2023-04-14T11:07:48.947Z,86.30
2023-04-14T11:10:21.999Z,87.60
2023-04-14T11:12:53.974Z,87.60
2023-04-14T11:15:21.129Z,84.80
2023-04-14T11:17:48.267Z,85.10
2023-04-14T11:20:19.031Z,86.50
2023-04-14T11:22:47.422Z,85.30
2023-04-14T11:25:19.079Z,84.30
2023-04-14T11:27:48.440Z,84.60
2023-04-14T11:30:16.411Z,83.80
2023-04-14T11:32:54.074Z,84.50
2023-04-14T11:35:22.928Z,84.20
2023-04-14T11:37:52.619Z,82.80
2023-04-14T11:40:19.649Z,83.30
2023-04-14T11:42:47.080Z,82.60
2023-04-14T11:45:15.584Z,84.00
2023-04-14T11:47:59.250Z,85.40
2023-04-14T11:50:27.344Z,83.70
2023-04-14T11:53:00.706Z,86.00
2023-04-14T11:55:28.532Z,85.10
2023-04-14T11:57:57.015Z,81.20
2023-04-14T12:00:24.479Z,83.20
2023-04-14T12:02:51.633Z,79.60
2023-04-14T12:05:21.064Z,81.50
2023-04-14T12:07:48.918Z,80.40
2023-04-14T12:10:16.249Z,77.40
2023-04-14T12:12:43.301Z,76.90
2023-04-14T12:15:11.045Z,78.00
2023-04-14T12:17:38.430Z,77.00
2023-04-14T12:20:05.660Z,78.70
2023-04-14T12:22:32.673Z,78.30
2023-04-14T12:24:59.779Z,77.90
2023-04-14T12:27:27.652Z,76.60
2023-04-14T12:29:54.623Z,75.90
2023-04-14T12:32:22.702Z,73.60
2023-04-14T12:34:58.940Z,75.40
2023-04-14T12:37:27.124Z,75.00
2023-04-14T12:39:59.979Z,76.70
2023-04-14T12:42:27.671Z,76.90
2023-04-14T12:44:55.272Z,77.70
2023-04-14T12:47:29.151Z,77.00
2023-04-14T12:49:56.849Z,77.90
2023-04-14T12:52:34.468Z,78.00
2023-04-14T12:55:02.955Z,77.10
2023-04-14T12:57:30.106Z,77.50
2023-04-14T12:59:57.146Z,75.90
2023-04-14T13:02:24.277Z,75.90
2023-04-14T13:04:51.333Z,76.90
2023-04-14T13:07:18.726Z,75.70
2023-04-14T13:09:45.788Z,75.90
2023-04-14T13:12:12.719Z,78.60
2023-04-14T13:14:39.655Z,77.70
2023-04-14T13:17:06.996Z,76.40
2023-04-14T13:19:34.010Z,76.60
2023-04-14T13:22:00.953Z,75.70
2023-04-14T13:24:28.146Z,76.30
2023-04-14T13:26:55.222Z,75.70
2023-04-14T13:29:22.215Z,75.10
2023-04-14T13:31:49.171Z,77.30
2023-04-14T13:34:16.134Z,73.80
2023-04-14T13:36:43.091Z,75.60
2023-04-14T13:39:10.046Z,75.00
2023-04-14T13:41:37.398Z,74.90
2023-04-14T13:44:04.410Z,76.10
2023-04-14T13:46:34.385Z,76.10
2023-04-14T13:49:07.439Z,74.10
2023-04-14T13:51:34.519Z,74.50
2023-04-14T13:54:01.430Z,77.50
2023-04-14T13:56:28.444Z,77.60
2023-04-14T13:58:55.466Z,77.90
2023-04-14T14:01:22.588Z,78.70
2023-04-14T14:03:50.561Z,78.40
2023-04-14T14:06:18.957Z,78.00
2023-04-14T14:08:46.122Z,77.80
2023-04-14T14:11:13.954Z,77.20
2023-04-14T14:13:41.119Z,77.20
2023-04-14T14:16:08.659Z,73.70
2023-04-14T14:18:36.348Z,74.10
2023-04-14T14:21:04.127Z,74.70
2023-04-14T14:23:31.213Z,75.40
2023-04-14T14:25:58.255Z,75.00
2023-04-14T14:28:26.272Z,75.00
2023-04-14T14:30:53.273Z,74.90
2023-04-14T14:33:20.292Z,74.00
2023-04-14T14:35:47.314Z,73.30
2023-04-14T14:38:14.519Z,74.40
2023-04-14T14:40:41.454Z,74.00
2023-04-14T14:43:08.552Z,72.80
2023-04-14T14:45:35.530Z,74.80
2023-04-14T14:48:02.829Z,72.60
2023-04-14T14:50:29.801Z,71.30
2023-04-14T14:52:56.967Z,72.10
2023-04-14T14:55:24.009Z,71.90
2023-04-14T14:57:51.291Z,73.30
2023-04-14T15:00:18.875Z,72.80
2023-04-14T15:02:46.071Z,73.20
2023-04-14T15:05:13.232Z,73.30
2023-04-14T15:07:40.550Z,74.40
2023-04-14T15:10:07.882Z,70.60
2023-04-14T15:12:34.797Z,71.80
2023-04-14T15:15:01.866Z,71.30
2023-04-14T15:17:28.915Z,69.00
2023-04-14T15:19:56.667Z,69.50
2023-04-14T15:22:23.597Z,70.80
2023-04-14T15:24:50.562Z,69.70
2023-04-14T15:27:17.578Z,70.20
2023-04-14T15:29:44.489Z,71.40
2023-04-14T15:32:12.210Z,72.70
2023-04-14T15:34:39.147Z,70.00
2023-04-14T15:37:06.115Z,69.20
2023-04-14T15:39:32.989Z,68.80
2023-04-14T15:41:59.904Z,69.80
2023-04-14T15:44:27.035Z,65.50
2023-04-14T15:46:53.973Z,65.70
2023-04-14T15:49:21.744Z,63.80
2023-04-14T15:51:49.594Z,64.60
2023-04-14T15:54:17.469Z,66.40
2023-04-14T15:56:44.427Z,65.40
2023-04-14T15:59:12.594Z,68.20
2023-04-14T16:01:39.551Z,69.20
2023-04-14T16:04:07.023Z,69.10
2023-04-14T16:06:36.241Z,70.00
2023-04-14T16:09:03.516Z,69.60
2023-04-14T16:11:31.012Z,68.90
2023-04-14T16:13:57.922Z,70.20
2023-04-14T16:16:25.125Z,69.00
2023-04-14T16:18:52.799Z,70.40
2023-04-14T16:21:19.739Z,69.30
2023-04-14T16:23:46.706Z,71.00
2023-04-14T16:26:13.674Z,69.90
2023-04-14T16:28:40.619Z,69.00
2023-04-14T16:31:08.025Z,68.60
2023-04-14T16:33:35.064Z,69.80
2023-04-14T16:36:06.289Z,71.40
2023-04-14T16:38:33.456Z,70.20
2023-04-14T16:41:01.275Z,70.10
2023-04-14T16:43:28.414Z,68.70
2023-04-14T16:46:02.940Z,69.50
2023-04-14T16:48:30.670Z,69.20
2023-04-14T16:50:57.985Z,70.00
2023-04-14T16:53:25.069Z,72.70
2023-04-14T16:55:51.979Z,71.00
2023-04-14T16:58:18.898Z,69.90
2023-04-14T17:00:45.880Z,69.80
2023-04-14T17:03:12.987Z,68.60
2023-04-14T17:05:40.087Z,70.60
2023-04-14T17:08:06.993Z,72.50
2023-04-14T17:10:33.926Z,72.20
2023-04-14T17:13:00.865Z,70.00
2023-04-14T17:15:27.757Z,70.20
2023-04-14T17:17:54.969Z,73.50
2023-04-14T17:20:21.899Z,72.60
2023-04-14T17:22:49.758Z,75.80
2023-04-14T17:25:18.258Z,76.20
2023-04-14T17:27:45.767Z,77.40
2023-04-14T17:30:13.069Z,79.00
2023-04-14T17:32:41.643Z,79.40
2023-04-14T17:35:09.248Z,81.00
2023-04-14T17:37:36.520Z,80.50
2023-04-14T17:40:04.908Z,80.20
2023-04-14T17:42:32.106Z,80.30
2023-04-14T17:44:58.980Z,79.40
2023-04-14T17:47:26.998Z,80.10
2023-04-14T17:49:54.425Z,80.80
2023-04-14T17:52:21.525Z,80.40
2023-04-14T17:54:49.821Z,79.70
2023-04-14T17:57:17.113Z,79.20
2023-04-14T17:59:44.846Z,79.70
2023-04-14T18:02:15.860Z,80.20
2023-04-14T18:04:43.511Z,80.00
2023-04-14T18:07:10.517Z,79.60
2023-04-14T18:09:37.502Z,78.50
2023-04-14T18:12:04.843Z,77.80
2023-04-14T18:14:32.714Z,78.20
2023-04-14T18:16:59.898Z,78.40
2023-04-14T18:19:26.992Z,77.00
2023-04-14T18:21:55.703Z,77.80
2023-04-14T18:26:55.443Z,77.30
2023-04-14T18:29:22.363Z,77.00
2023-04-14T18:31:49.478Z,77.40
2023-04-14T18:34:16.775Z,75.80
2023-04-14T18:36:44.137Z,76.60
2023-04-14T18:39:11.147Z,77.40
2023-04-14T18:41:38.436Z,77.60
2023-04-14T18:44:05.435Z,77.60
2023-04-14T18:46:32.448Z,77.40
2023-04-14T18:48:59.700Z,77.70
2023-04-14T18:51:27.458Z,78.70
2023-04-14T18:53:54.513Z,78.50
2023-04-14T18:56:21.479Z,78.50
2023-04-14T18:58:49.080Z,78.70
2023-04-14T19:01:17.209Z,78.10
2023-04-14T19:03:44.183Z,77.00
2023-04-14T19:06:11.362Z,77.40
2023-04-14T19:08:38.279Z,78.40
2023-04-14T19:11:05.416Z,77.50
2023-04-14T19:13:32.383Z,78.50
2023-04-14T19:16:06.089Z,79.30
2023-04-14T19:18:33.060Z,79.00
2023-04-14T19:21:00.011Z,79.30
2023-04-14T19:23:26.920Z,78.50
2023-04-14T19:25:54.094Z,78.50
2023-04-14T19:28:21.757Z,78.90
2023-04-14T19:30:48.669Z,79.50
2023-04-14T19:33:15.616Z,79.30
2023-04-14T19:35:44.219Z,78.90
2023-04-14T19:38:11.538Z,79.40
2023-04-14T19:40:38.959Z,79.50
2023-04-14T19:43:06.378Z,79.10
2023-04-14T19:45:33.262Z,79.60
2023-04-14T19:48:02.118Z,80.20
2023-04-14T19:50:34.259Z,81.00
2023-04-14T19:53:01.171Z,82.00
2023-04-14T19:55:28.070Z,81.80
2023-04-14T19:57:54.952Z,81.30
2023-04-14T20:00:21.857Z,82.00
2023-04-14T20:02:48.906Z,80.90
2023-04-14T20:05:15.916Z,80.70
2023-04-14T20:07:42.802Z,80.60
2023-04-14T20:10:10.073Z,80.80
2023-04-14T20:12:36.960Z,80.80
2023-04-14T20:15:04.548Z,81.20
2023-04-14T20:17:31.664Z,80.50
2023-04-14T20:19:58.637Z,80.20
2023-04-14T20:22:25.767Z,79.70
2023-04-14T20:24:53.251Z,80.00
2023-04-14T20:27:20.122Z,80.20
2023-04-14T20:29:47.078Z,80.20
2023-04-14T20:32:14.013Z,80.50
2023-04-14T20:34:40.917Z,80.40
2023-04-14T20:37:07.936Z,81.10
2023-04-14T20:39:34.840Z,81.70
2023-04-14T20:42:02.179Z,81.90
2023-04-14T20:44:29.089Z,82.10
2023-04-14T20:46:56.015Z,81.70
2023-04-14T20:49:22.951Z,82.50
2023-04-14T20:51:49.947Z,82.30
2023-04-14T20:54:17.064Z,82.30
2023-04-14T20:56:44.225Z,82.40
2023-04-14T20:59:11.253Z,82.50
2023-04-14T21:01:38.676Z,82.60
2023-04-14T21:04:05.690Z,82.90
2023-04-14T21:06:33.123Z,82.80
2023-04-14T21:09:00.575Z,83.00
2023-04-14T21:11:28.096Z,83.30
2023-04-14T21:15:29.031Z,83.10
2023-04-14T21:16:42.086Z,83.20
2023-04-14T21:19:09.404Z,83.10
2023-04-14T21:21:36.862Z,83.00
2023-04-14T21:24:03.962Z,82.40
2023-04-14T21:26:31.275Z,82.70
2023-04-14T21:28:58.146Z,81.80
2023-04-14T21:31:25.140Z,82.00
2023-04-14T21:33:52.467Z,81.70
2023-04-14T21:36:19.708Z,82.90
2023-04-14T21:38:47.196Z,82.90
2023-04-14T21:41:14.289Z,82.70
2023-04-14T21:43:41.673Z,81.50
2023-04-14T21:46:08.663Z,82.40
2023-04-14T21:48:35.748Z,82.90
2023-04-14T21:51:03.071Z,82.90
2023-04-14T21:53:30.793Z,83.00
2023-04-14T21:56:08.772Z,83.00
2023-04-14T21:58:38.396Z,82.90
2023-04-14T22:01:05.413Z,83.00
2023-04-14T22:03:33.149Z,82.90
2023-04-14T22:06:00.362Z,82.90
2023-04-14T22:08:27.358Z,82.90
2023-04-14T22:10:54.911Z,82.70
2023-04-14T22:13:21.932Z,82.70
2023-04-14T22:15:49.914Z,82.60
2023-04-14T22:18:17.125Z,82.60
2023-04-14T22:20:45.092Z,82.30
2023-04-14T22:23:13.176Z,83.30
2023-04-14T22:25:40.444Z,83.40
2023-04-14T22:28:07.380Z,83.50
2023-04-14T22:30:35.093Z,83.50
2023-04-14T22:33:02.420Z,83.40
2023-04-14T22:35:30.065Z,83.40
2023-04-14T22:37:57.124Z,83.40
2023-04-14T22:40:24.064Z,83.70
2023-04-14T22:42:50.945Z,83.70
2023-04-14T22:45:18.119Z,83.70
2023-04-14T22:47:45.584Z,83.60
2023-04-14T22:50:12.673Z,83.70
2023-04-14T22:52:39.777Z,83.50
2023-04-14T22:55:07.545Z,83.50
2023-04-14T22:57:34.466Z,83.70
2023-04-14T23:00:08.768Z,83.90
2023-04-14T23:02:36.525Z,83.90
2023-04-14T23:05:04.125Z,83.90
2023-04-14T23:07:31.145Z,83.90
2023-04-14T23:09:58.454Z,83.90
2023-04-14T23:12:25.435Z,83.80
2023-04-14T23:14:52.433Z,83.90
2023-04-14T23:17:19.375Z,83.70
2023-04-14T23:19:46.823Z,83.70
2023-04-14T23:22:14.281Z,83.60
2023-04-14T23:24:41.618Z,83.60
2023-04-14T23:27:08.568Z,83.60
2023-04-14T23:29:35.914Z,84.10
